Time;durP1;ratioP1;P1;durP2;ratioP2;P2;SDS_P1;SDS_P2;PMS_P1;PMS_P2;Temp;Humidity;BMP_temperature;BMP_pressure;BME280_temperature;BME280_humidity;BME280_pressure;Samples;Min_cycle;Max_cycle;Signal;HPM_P1;HPM_P2
2023/07/24 04:30:50;;;;;;;;;3.25;3.25;;;;;27.52;48.65;100115.44;4954667;28;45645;-72
2023/07/24 04:33:15;;;;;;;;;1.00;1.00;;;;;27.37;48.60;100116.34;4955718;28;45315;-73
2023/07/24 04:35:40;;;;;;;;;4.00;2.00;;;;;27.43;48.53;100117.47;4957698;28;45289;-73
2023/07/24 04:38:06;;;;;;;;;4.00;2.00;;;;;27.62;48.47;100122.38;4940166;28;45350;-72
2023/07/24 04:40:32;;;;;;;;;1.75;1.75;;;;;27.57;48.22;100124.00;4957186;28;45439;-72
2023/07/24 04:42:57;;;;;;;;;4.75;4.75;;;;;27.69;47.81;100120.56;4957005;28;45514;-73
2023/07/24 04:45:23;;;;;;;;;3.00;3.00;;;;;27.63;48.07;100121.34;4957547;28;45316;-73
2023/07/24 04:47:48;;;;;;;;;2.75;2.75;;;;;27.56;47.36;100128.66;4957088;28;45560;-71
2023/07/24 04:50:13;;;;;;;;;2.50;2.50;;;;;27.59;47.44;100119.16;4955898;28;58200;-71
2023/07/24 04:52:39;;;;;;;;;3.00;3.00;;;;;27.71;47.03;100123.13;4957171;28;45192;-72
2023/07/24 04:55:05;;;;;;;;;1.50;1.50;;;;;27.60;47.08;100118.97;4957488;28;45355;-73
2023/07/24 04:57:30;;;;;;;;;1.50;1.50;;;;;27.67;47.32;100125.41;4957278;28;45488;-72
2023/07/24 04:59:55;;;;;;;;;2.00;2.00;;;;;27.66;47.18;100131.94;4957305;28;46164;-73
2023/07/24 05:02:21;;;;;;;;;1.00;1.00;;;;;27.62;46.68;100136.16;4956777;28;45266;-72
2023/07/24 05:04:46;;;;;;;;;2.00;1.50;;;;;27.55;47.32;100126.97;4957383;28;45430;-72
2023/07/24 05:07:11;;;;;;;;;2.00;2.00;;;;;27.37;47.24;100115.50;4956929;28;46979;-73
2023/07/24 05:09:36;;;;;;;;;0.75;0.75;;;;;27.51;47.15;100122.84;4957082;28;45957;-77
2023/07/24 05:12:02;;;;;;;;;3.00;2.00;;;;;27.28;47.03;100123.03;4956804;28;45272;-75
2023/07/24 05:14:27;;;;;;;;;1.25;1.25;;;;;27.14;47.63;100143.16;4957079;28;45361;-72
2023/07/24 05:16:53;;;;;;;;;3.00;2.00;;;;;27.24;47.21;100131.84;4956450;28;45550;-73
2023/07/24 05:19:18;;;;;;;;;1.25;1.25;;;;;27.44;46.46;100128.28;4956910;28;45968;-73
2023/07/24 05:21:43;;;;;;;;;1.25;1.25;;;;;27.20;46.45;100130.53;4956701;28;45459;-73
2023/07/24 05:24:09;;;;;;;;;2.50;0.50;;;;;27.13;47.07;100124.97;4956848;28;45573;-74
2023/07/24 05:26:34;;;;;;;;;1.00;1.00;;;;;27.13;46.97;100127.72;4956481;28;45475;-72
2023/07/24 05:28:59;;;;;;;;;2.00;1.25;;;;;26.90;46.63;100118.66;4956585;28;46422;-72
2023/07/24 05:31:24;;;;;;;;;1.25;1.25;;;;;27.03;46.69;100105.13;4956418;28;45389;-74
2023/07/24 05:33:50;;;;;;;;;3.00;1.00;;;;;27.16;46.26;100097.03;4956893;28;45378;-73
2023/07/24 05:36:15;;;;;;;;;3.25;1.50;;;;;27.25;46.40;100120.66;4956094;28;46980;-74
2023/07/24 05:38:42;;;;;;;;;2.00;2.00;;;;;27.34;45.29;100102.13;4939387;28;47595;-77
2023/07/24 05:41:07;;;;;;;;;2.00;1.50;;;;;27.28;45.97;100128.53;4939506;28;45517;-76
2023/07/24 05:43:32;;;;;;;;;3.00;1.00;;;;;27.23;45.46;100122.72;4965946;28;45338;-75
2023/07/24 05:45:58;;;;;;;;;0.50;0.50;;;;;27.26;44.88;100105.84;4960083;28;45457;-77
2023/07/24 05:48:24;;;;;;;;;0.50;0.50;;;;;27.36;45.19;100116.53;4956321;28;45473;-77
2023/07/24 05:50:50;;;;;;;;;0.75;0.75;;;;;27.40;44.53;100110.44;4956233;28;45391;-76
2023/07/24 05:53:16;;;;;;;;;1.00;1.00;;;;;27.44;44.40;100111.78;4956396;28;45521;-77
2023/07/24 05:55:42;;;;;;;;;1.00;1.00;;;;;27.46;44.53;100106.94;4956068;28;45292;-77
2023/07/24 05:58:07;;;;;;;;;2.25;2.25;;;;;27.46;43.79;100114.34;4956412;28;46546;-77
2023/07/24 06:00:33;;;;;;;;;1.00;0.00;;;;;27.52;43.63;100118.19;4955882;28;45176;-77
2023/07/24 06:02:58;;;;;;;;;1.75;1.25;;;;;27.28;43.56;100128.53;4956053;28;45306;-76
2023/07/24 06:05:23;;;;;;;;;1.00;1.00;;;;;27.23;43.72;100116.38;4956132;28;45584;-77
2023/07/24 06:07:49;;;;;;;;;1.50;1.50;;;;;27.24;43.36;100129.09;4956286;28;45373;-76
2023/07/24 06:10:14;;;;;;;;;1.00;1.00;;;;;27.05;43.39;100130.56;4956113;28;45468;-78
2023/07/24 06:12:39;;;;;;;;;1.00;1.00;;;;;27.16;43.17;100116.28;4964084;28;45416;-76
2023/07/24 06:15:06;;;;;;;;;2.25;2.25;;;;;27.30;42.89;100136.59;4960800;28;45400;-76
2023/07/24 06:17:32;;;;;;;;;1.25;1.25;;;;;27.12;42.45;100131.50;4955911;28;46149;-76
2023/07/24 06:19:57;;;;;;;;;0.50;0.50;;;;;27.29;42.54;100143.16;4955743;28;45377;-77
2023/07/24 06:22:23;;;;;;;;;1.00;1.00;;;;;27.36;42.37;100144.94;4956094;28;45362;-76
2023/07/24 06:24:48;;;;;;;;;0.50;0.50;;;;;27.16;42.40;100152.06;4942767;28;45451;-77
2023/07/24 06:27:13;;;;;;;;;0.50;0.50;;;;;27.10;42.44;100139.09;4955710;28;45456;-77
2023/07/24 06:29:39;;;;;;;;;0.75;0.75;;;;;27.26;42.46;100138.00;4939471;28;45236;-76
2023/07/24 06:32:05;;;;;;;;;1.00;0.50;;;;;27.26;42.74;100135.25;4967157;28;45772;-79
2023/07/24 06:34:30;;;;;;;;;0.25;0.25;;;;;27.15;42.20;100131.09;4955477;28;45298;-77
2023/07/24 06:36:55;;;;;;;;;1.50;1.50;;;;;27.39;42.01;100140.94;4938074;28;47211;-77
2023/07/24 06:39:21;;;;;;;;;2.25;2.25;;;;;27.24;42.07;100118.94;4967406;28;45514;-75
2023/07/24 06:41:46;;;;;;;;;0.50;0.50;;;;;27.36;42.45;100122.06;4938226;28;45271;-76
2023/07/24 06:44:12;;;;;;;;;1.00;1.00;;;;;27.41;42.30;100122.31;4955561;28;45444;-76
2023/07/24 06:46:37;;;;;;;;;0.50;0.50;;;;;27.56;41.31;100134.16;4955381;28;45231;-80
2023/07/24 06:49:02;;;;;;;;;0.75;0.75;;;;;27.71;40.91;100135.00;4955384;28;45229;-81
2023/07/24 06:51:28;;;;;;;;;0.00;0.00;;;;;27.73;40.97;100126.53;4955918;28;45219;-82
2023/07/24 06:53:53;;;;;;;;;1.00;1.00;;;;;27.78;41.24;100144.16;4969138;28;45340;-82
2023/07/24 06:56:18;;;;;;;;;1.00;1.00;;;;;27.48;41.35;100113.06;4956658;28;48414;-78
2023/07/24 06:58:44;;;;;;;;;1.25;1.25;;;;;27.56;41.46;100141.59;4971143;28;45421;-80
2023/07/24 07:01:11;;;;;;;;;1.00;1.00;;;;;27.59;41.49;100138.44;4973456;28;45410;-78
2023/07/24 07:03:37;;;;;;;;;1.25;1.25;;;;;27.56;41.50;100127.84;4973321;28;45432;-79
2023/07/24 07:06:06;;;;;;;;;0.25;0.25;;;;;27.59;40.86;100139.28;4974735;28;45857;-79
2023/07/24 07:08:34;;;;;;;;;1.00;1.00;;;;;27.34;41.11;100137.91;4974591;28;45306;-79
2023/07/24 07:11:00;;;;;;;;;1.25;1.25;;;;;27.47;41.51;100144.44;4974670;28;45520;-77
2023/07/24 07:13:26;;;;;;;;;1.00;1.00;;;;;27.42;41.88;100121.28;4976049;28;45441;-78
2023/07/24 07:15:52;;;;;;;;;1.50;1.50;;;;;27.46;41.38;100131.72;4986584;28;45404;-79
2023/07/24 07:18:17;;;;;;;;;4.00;1.00;;;;;27.44;41.30;100113.69;4965105;28;45513;-81
2023/07/24 07:20:49;;;;;;;;;2.50;0.75;;;;;27.71;41.42;100128.63;4960415;28;45309;-80
2023/07/24 07:23:15;;;;;;;;;0.75;0.75;;;;;27.28;41.65;100131.28;4977944;28;45431;-80
2023/07/24 07:25:43;;;;;;;;;1.00;1.00;;;;;27.40;41.37;100140.72;4978153;28;45491;-79
2023/07/24 07:28:08;;;;;;;;;2.00;2.00;;;;;27.55;41.54;100123.38;4977689;28;45461;-79
2023/07/24 07:30:33;;;;;;;;;0.75;0.75;;;;;27.54;41.15;100146.44;4959950;28;45432;-79
2023/07/24 07:32:59;;;;;;;;;3.75;2.00;;;;;27.60;41.80;100132.75;4977558;28;47218;-80
2023/07/24 07:35:24;;;;;;;;;1.50;1.50;;;;;27.70;41.14;100144.28;4960153;28;46348;-80
2023/07/24 07:37:49;;;;;;;;;1.50;1.50;;;;;27.76;41.38;100145.41;4960603;28;45338;-79
2023/07/24 07:40:15;;;;;;;;;1.75;0.50;;;;;27.49;41.16;100139.56;4977872;28;45700;-74
2023/07/24 07:42:41;;;;;;;;;3.00;1.75;;;;;27.47;41.37;100160.97;4977927;28;45429;-73
2023/07/24 07:45:06;;;;;;;;;2.00;2.00;;;;;27.40;40.24;100148.13;4977616;28;45477;-75
2023/07/24 07:47:32;;;;;;;;;1.00;1.00;;;;;27.29;40.72;100130.25;4977654;28;45436;-75
2023/07/24 07:49:57;;;;;;;;;2.00;2.00;;;;;27.74;39.73;100159.38;4977706;28;45482;-75
2023/07/24 07:52:23;;;;;;;;;0.50;0.50;;;;;27.78;39.46;100157.09;4977402;28;45385;-74
2023/07/24 07:54:48;;;;;;;;;0.50;0.50;;;;;27.67;40.24;100165.84;4977553;28;45622;-74
2023/07/24 07:57:14;;;;;;;;;0.75;0.75;;;;;27.86;39.82;100149.53;4976958;28;45801;-74
2023/07/24 07:59:40;;;;;;;;;1.00;1.00;;;;;27.94;39.64;100167.00;4977165;28;45494;-75
2023/07/24 08:02:05;;;;;;;;;2.50;0.75;;;;;27.70;38.71;100176.50;4977337;28;45526;-72
2023/07/24 08:04:31;;;;;;;;;1.00;1.00;;;;;27.58;38.68;100181.63;4977555;28;45352;-72
2023/07/24 08:06:58;;;;;;;;;1.00;1.00;;;;;27.69;39.18;100172.03;4977066;28;45373;-72
2023/07/24 08:09:24;;;;;;;;;1.25;1.25;;;;;27.77;39.37;100174.66;4977223;28;45340;-73
2023/07/24 08:11:49;;;;;;;;;2.00;2.00;;;;;27.58;39.41;100178.88;4976958;28;45351;-73
2023/07/24 08:14:15;;;;;;;;;1.50;1.50;;;;;27.73;40.04;100167.84;4977297;28;46052;-73
2023/07/24 08:16:40;;;;;;;;;4.00;2.25;;;;;27.76;39.57;100167.44;4976904;28;45260;-71
2023/07/24 08:19:05;;;;;;;;;2.25;2.25;;;;;27.93;38.99;100173.56;4959693;28;45387;-73
2023/07/24 08:21:31;;;;;;;;;1.75;1.75;;;;;27.74;38.95;100161.25;4975921;28;45558;-73
2023/07/24 08:23:57;;;;;;;;;1.75;1.75;;;;;27.85;38.71;100156.09;4977453;28;45550;-71
2023/07/24 08:26:24;;;;;;;;;1.25;1.25;;;;;27.76;38.64;100149.00;4976293;28;45274;-72
2023/07/24 08:28:49;;;;;;;;;2.00;2.00;;;;;27.81;38.15;100167.72;4977269;28;45354;-71
2023/07/24 08:31:15;;;;;;;;;1.00;1.00;;;;;27.66;38.33;100150.38;4976262;28;45534;-74
2023/07/24 08:33:40;;;;;;;;;5.25;2.00;;;;;27.93;37.94;100163.38;4977041;28;46218;-71
2023/07/24 08:36:07;;;;;;;;;2.25;2.25;;;;;27.99;38.31;100145.19;4976791;28;45407;-72
2023/07/24 08:38:34;;;;;;;;;1.50;1.50;;;;;28.19;37.27;100160.06;4977384;28;45419;-72
2023/07/24 08:41:13;;;;;;;;;1.25;1.25;;;;;27.90;36.70;100163.78;4976275;28;45577;-74
2023/07/24 08:43:42;;;;;;;;;3.25;2.00;;;;;28.18;36.37;100147.31;4976439;28;46329;-71
2023/07/24 08:46:07;;;;;;;;;2.00;2.00;;;;;28.34;36.67;100162.72;4958678;28;46042;-73
2023/07/24 08:48:38;;;;;;;;;3.00;1.75;;;;;28.42;36.28;100149.63;4976773;28;45419;-72
2023/07/24 08:51:06;;;;;;;;;1.00;1.00;;;;;28.32;35.57;100162.09;4976333;28;45491;-74
2023/07/24 08:53:35;;;;;;;;;2.50;2.50;;;;;28.33;35.24;100159.09;4976218;28;46132;-72
2023/07/24 08:56:05;;;;;;;;;3.25;1.75;;;;;28.36;35.61;100150.44;4976082;28;45459;-72
2023/07/24 08:58:31;;;;;;;;;2.75;1.75;;;;;28.41;35.50;100163.66;4976765;28;45405;-72
2023/07/24 09:00:58;;;;;;;;;0.50;0.50;;;;;28.67;35.16;100171.28;4976326;28;45533;-72
2023/07/24 09:03:24;;;;;;;;;2.00;0.75;;;;;28.76;34.74;100175.56;4976373;28;45438;-74
2023/07/24 09:05:49;;;;;;;;;2.50;0.50;;;;;28.70;34.81;100174.47;4976288;28;45379;-72
2023/07/24 09:08:15;;;;;;;;;3.75;0.75;;;;;28.76;34.19;100172.81;4976425;28;45559;-72
2023/07/24 09:10:40;;;;;;;;;2.75;1.50;;;;;28.77;34.64;100161.59;4974515;28;46133;-72
2023/07/24 09:13:07;;;;;;;;;0.75;0.75;;;;;28.90;34.37;100183.78;4975669;28;45421;-73
2023/07/24 09:15:43;;;;;;;;;1.00;1.00;;;;;28.78;34.35;100165.22;4976008;28;45346;-74
2023/07/24 09:18:09;;;;;;;;;1.50;1.50;;;;;28.97;34.57;100172.78;4974382;28;45464;-74
2023/07/24 09:20:39;;;;;;;;;4.50;2.75;;;;;29.07;34.17;100161.38;4976319;28;45232;-72
2023/07/24 09:23:05;;;;;;;;;1.00;1.00;;;;;29.15;33.76;100164.81;4975940;28;45499;-72
2023/07/24 09:25:31;;;;;;;;;2.75;2.50;;;;;29.04;33.62;100186.59;4975313;28;48810;-76
2023/07/24 09:27:58;;;;;;;;;3.00;2.00;;;;;29.09;34.06;100178.59;4975624;28;45507;-72
2023/07/24 09:30:24;;;;;;;;;1.00;1.00;;;;;28.96;34.32;100179.34;4975812;28;45337;-73
2023/07/24 09:32:53;;;;;;;;;4.25;2.00;;;;;29.15;33.69;100194.31;4975020;28;46093;-74
2023/07/24 09:35:19;;;;;;;;;2.00;1.00;;;;;28.95;34.11;100172.97;4975511;28;45464;-73
2023/07/24 09:37:45;;;;;;;;;3.00;1.75;;;;;29.01;34.70;100174.06;4975629;28;45471;-72
2023/07/24 09:40:12;;;;;;;;;1.75;1.75;;;;;29.08;34.29;100174.13;4975525;28;45284;-73
2023/07/24 09:42:39;;;;;;;;;1.00;1.00;;;;;28.86;34.58;100178.84;4974807;28;47426;-73
2023/07/24 09:45:08;;;;;;;;;1.75;1.75;;;;;28.85;35.22;100185.41;4957289;28;45345;-73
2023/07/24 09:47:34;;;;;;;;;2.00;2.00;;;;;29.14;35.05;100167.78;4975545;28;45319;-74
2023/07/24 09:50:02;;;;;;;;;1.75;1.00;;;;;28.87;34.66;100170.38;4975848;28;45266;-72
2023/07/24 09:52:29;;;;;;;;;1.00;1.00;;;;;29.05;34.62;100163.47;4975294;28;45343;-72
2023/07/24 09:55:03;;;;;;;;;3.50;1.75;;;;;29.18;34.19;100178.19;4975779;28;45413;-73
2023/07/24 09:57:29;;;;;;;;;1.00;1.00;;;;;29.14;34.84;100184.31;4975401;28;45365;-72
2023/07/24 09:59:56;;;;;;;;;1.00;1.00;;;;;29.24;34.30;100179.28;4975871;28;46090;-71
2023/07/24 10:02:22;;;;;;;;;2.50;1.00;;;;;29.24;34.07;100182.91;4975414;28;46101;-72
2023/07/24 10:04:49;;;;;;;;;2.25;2.00;;;;;29.25;34.05;100189.28;4975573;28;45730;-75
2023/07/24 10:07:15;;;;;;;;;2.25;1.75;;;;;29.37;33.50;100184.91;4975470;28;45297;-71
2023/07/24 10:09:43;;;;;;;;;1.50;1.50;;;;;29.12;33.78;100187.28;4975323;28;45349;-73
2023/07/24 10:12:09;;;;;;;;;1.75;0.75;;;;;29.22;33.69;100184.16;4974788;28;45341;-74
2023/07/24 10:14:35;;;;;;;;;1.75;1.75;;;;;29.27;34.02;100187.16;4975350;28;45223;-73
2023/07/24 10:17:01;;;;;;;;;0.75;0.75;;;;;29.23;34.35;100177.59;4975166;28;45561;-73
2023/07/24 10:19:37;;;;;;;;;1.75;0.50;;;;;29.47;33.67;100170.72;4958286;28;45719;-73
2023/07/24 10:22:03;;;;;;;;;0.00;0.00;;;;;29.58;34.18;100179.25;4975025;28;45483;-73
2023/07/24 10:24:33;;;;;;;;;3.00;1.50;;;;;29.80;33.97;100192.91;4969757;28;45445;-74
2023/07/24 10:26:58;;;;;;;;;0.50;0.50;;;;;29.59;34.26;100164.38;4957123;28;45440;-71
2023/07/24 10:29:25;;;;;;;;;2.00;0.50;;;;;29.47;33.87;100165.19;4975340;28;45368;-74
2023/07/24 10:31:55;;;;;;;;;1.50;1.50;;;;;29.82;33.52;100169.53;4974100;28;45989;-77
2023/07/24 10:34:21;;;;;;;;;2.75;0.75;;;;;29.87;32.94;100177.19;4974718;28;45363;-75
2023/07/24 10:36:46;;;;;;;;;3.50;2.00;;;;;30.08;32.95;100194.50;4975289;28;45279;-75
2023/07/24 10:39:18;;;;;;;;;0.75;0.75;;;;;30.14;32.61;100167.91;4974185;28;45835;-75
2023/07/24 10:41:45;;;;;;;;;1.75;1.75;;;;;30.17;32.93;100197.06;4973704;28;45526;-72
2023/07/24 10:44:10;;;;;;;;;2.00;2.00;;;;;30.15;32.77;100174.31;4974469;28;45533;-74
2023/07/24 10:46:40;;;;;;;;;2.75;1.75;;;;;30.28;32.66;100182.63;4974694;28;45177;-74
2023/07/24 10:49:09;;;;;;;;;2.00;2.00;;;;;30.28;32.95;100177.09;4956755;28;45389;-77
2023/07/24 10:51:37;;;;;;;;;2.25;2.25;;;;;29.88;32.90;100181.66;4957227;28;47661;-73
2023/07/24 10:54:04;;;;;;;;;1.75;1.75;;;;;30.16;33.20;100174.09;4974657;28;45505;-75
2023/07/24 10:56:30;;;;;;;;;1.75;1.75;;;;;30.35;32.62;100170.50;4974134;28;45459;-79
2023/07/24 10:58:55;;;;;;;;;0.75;0.75;;;;;30.51;32.13;100165.59;4970702;28;45599;-73
2023/07/24 11:01:20;;;;;;;;;2.00;2.00;;;;;30.56;32.31;100205.41;4964243;28;46136;-75
2023/07/24 11:03:46;;;;;;;;;2.00;2.00;;;;;30.44;32.42;100207.97;4974461;28;45484;-76
2023/07/24 11:06:19;;;;;;;;;1.50;1.50;;;;;30.38;32.38;100177.50;4974745;28;45374;-77
2023/07/24 11:08:56;;;;;;;;;2.25;1.75;;;;;30.30;32.47;100197.06;4973861;28;45323;-76
2023/07/24 11:11:22;;;;;;;;;2.00;2.00;;;;;30.40;32.89;100200.28;4974421;28;45990;-75
2023/07/24 11:13:47;;;;;;;;;2.75;0.75;;;;;30.58;32.57;100180.31;4974442;28;45459;-72
2023/07/24 11:16:13;;;;;;;;;2.75;1.50;;;;;30.49;32.76;100182.41;4981390;28;45432;-71
2023/07/24 11:18:47;;;;;;;;;2.50;1.75;;;;;30.85;32.23;100184.75;4983193;28;46463;-72
2023/07/24 11:21:13;;;;;;;;;2.50;2.00;;;;;30.88;32.23;100181.53;4982524;28;46917;-71
2023/07/24 11:23:49;;;;;;;;;1.50;1.50;;;;;30.83;31.36;100181.34;4983283;28;45495;-73
2023/07/24 11:26:15;;;;;;;;;1.00;1.00;;;;;30.93;32.11;100180.91;4979093;28;45334;-72
2023/07/24 11:28:41;;;;;;;;;0.75;0.75;;;;;30.93;31.95;100190.06;4982892;28;45573;-74
2023/07/24 11:31:07;;;;;;;;;2.00;2.00;;;;;30.62;32.11;100189.91;4983293;28;46308;-75
2023/07/24 11:33:33;;;;;;;;;1.75;1.75;;;;;30.53;32.19;100183.72;4981844;28;45506;-75
2023/07/24 11:35:59;;;;;;;;;1.75;1.75;;;;;30.40;32.52;100190.06;4962441;28;45440;-77
2023/07/24 11:38:25;;;;;;;;;0.00;0.00;;;;;30.54;32.22;100196.47;4958920;28;45690;-75
2023/07/24 11:40:50;;;;;;;;;3.50;2.00;;;;;30.65;32.17;100193.06;4981296;28;46056;-76
2023/07/24 11:43:20;;;;;;;;;1.50;1.50;;;;;30.76;31.89;100194.34;4983515;28;45380;-74
2023/07/24 11:45:53;;;;;;;;;3.00;1.75;;;;;30.65;31.41;100195.84;4979159;28;45280;-77
2023/07/24 11:48:24;;;;;;;;;0.00;0.00;;;;;31.11;30.69;100184.72;4983121;28;45535;-77
2023/07/24 11:50:55;;;;;;;;;1.25;1.25;;;;;31.15;30.44;100185.97;4967411;28;47677;-76
2023/07/24 11:53:26;;;;;;;;;0.75;0.75;;;;;31.14;30.44;100191.72;4973087;28;45362;-77
2023/07/24 11:55:54;;;;;;;;;0.00;0.00;;;;;31.15;30.09;100177.66;4982683;28;45571;-76
2023/07/24 11:58:21;;;;;;;;;1.00;1.00;;;;;30.89;29.81;100169.41;4982218;28;45536;-76
2023/07/24 12:00:48;;;;;;;;;3.00;1.75;;;;;31.02;29.77;100191.53;4982416;28;46069;-76
2023/07/24 12:03:20;;;;;;;;;3.00;1.50;;;;;30.73;30.20;100187.31;4985168;28;45293;-76
2023/07/24 12:05:45;;;;;;;;;0.75;0.75;;;;;30.96;30.25;100186.00;4983242;28;45475;-76
2023/07/24 12:08:11;;;;;;;;;0.75;0.75;;;;;31.13;30.37;100199.22;4977163;28;45345;-74
2023/07/24 12:10:38;;;;;;;;;1.00;1.00;;;;;31.05;30.72;100201.34;4977067;28;45554;-76
2023/07/24 12:13:04;;;;;;;;;2.75;1.00;;;;;30.76;30.75;100186.03;4976993;28;45361;-76
2023/07/24 12:15:30;;;;;;;;;1.00;1.00;;;;;30.84;31.58;100188.59;4977125;28;45479;-75
2023/07/24 12:17:56;;;;;;;;;1.00;1.00;;;;;30.79;31.20;100189.22;4984153;28;46150;-76
2023/07/24 12:20:22;;;;;;;;;1.00;1.00;;;;;30.68;31.47;100191.81;4988116;28;45597;-76
2023/07/24 12:22:53;;;;;;;;;2.00;1.00;;;;;30.87;31.15;100185.41;4983425;28;45496;-76
2023/07/24 12:25:20;;;;;;;;;2.00;2.00;;;;;30.95;31.39;100184.31;4976393;28;45627;-74
2023/07/24 12:27:46;;;;;;;;;1.25;1.25;;;;;30.84;31.38;100183.03;4966527;28;45398;-76
2023/07/24 12:30:11;;;;;;;;;2.50;1.00;;;;;31.00;30.90;100196.44;4976677;28;46484;-74
2023/07/24 12:32:38;;;;;;;;;1.75;1.75;;;;;30.90;31.32;100186.84;4958902;28;45393;-76
2023/07/24 12:35:03;;;;;;;;;2.75;1.75;;;;;31.05;31.05;100181.94;4977229;28;45502;-75
2023/07/24 12:37:29;;;;;;;;;2.00;2.00;;;;;31.11;30.62;100192.19;4959336;28;45919;-77
2023/07/24 12:39:54;;;;;;;;;2.75;2.00;;;;;31.11;30.56;100198.56;4976078;28;45516;-75
2023/07/24 12:42:23;;;;;;;;;1.00;1.00;;;;;31.04;31.24;100186.63;4976151;28;45365;-75
2023/07/24 12:44:49;;;;;;;;;0.25;0.25;;;;;31.06;30.86;100183.63;4976564;28;45460;-76
2023/07/24 12:47:14;;;;;;;;;0.75;0.75;;;;;30.90;30.66;100184.94;4958889;28;46208;-75
2023/07/24 12:49:40;;;;;;;;;2.00;2.00;;;;;30.98;31.12;100170.00;4976558;28;45318;-74
2023/07/24 12:52:05;;;;;;;;;1.50;1.50;;;;;31.08;31.28;100182.38;4976193;28;45525;-77
2023/07/24 12:54:31;;;;;;;;;2.00;2.00;;;;;31.08;31.12;100181.53;4976453;28;45409;-75
2023/07/24 12:56:57;;;;;;;;;1.50;1.50;;;;;30.95;31.19;100187.06;4976126;28;45478;-76
2023/07/24 12:59:22;;;;;;;;;2.00;2.00;;;;;31.01;31.98;100187.06;4976285;28;45445;-76
2023/07/24 13:01:48;;;;;;;;;2.25;2.25;;;;;31.10;31.75;100196.88;4976002;28;45460;-75
2023/07/24 13:04:13;;;;;;;;;2.00;1.00;;;;;31.27;31.28;100193.63;4981067;28;45592;-76
2023/07/24 13:06:38;;;;;;;;;2.00;2.00;;;;;31.31;32.55;100197.63;4986186;28;45552;-77
2023/07/24 13:09:04;;;;;;;;;1.25;1.25;;;;;31.17;33.35;100205.16;4977734;28;46307;-75
2023/07/24 13:11:30;;;;;;;;;2.50;2.00;;;;;31.14;33.58;100211.97;4972723;28;45424;-74
2023/07/24 13:13:56;;;;;;;;;1.50;1.50;;;;;31.16;33.79;100206.22;4976051;28;45468;-74
2023/07/24 13:16:22;;;;;;;;;2.00;2.00;;;;;30.99;34.25;100208.56;4959622;28;46862;-75
2023/07/24 13:18:48;;;;;;;;;1.75;1.75;;;;;30.73;35.45;100225.22;4978794;28;45258;-75
2023/07/24 13:21:14;;;;;;;;;1.00;1.00;;;;;30.47;35.12;100204.75;4979020;28;45382;-74
2023/07/24 13:23:40;;;;;;;;;3.00;3.00;;;;;30.17;35.88;100203.47;4991429;28;45536;-75
2023/07/24 13:26:10;;;;;;;;;2.00;2.00;;;;;30.26;36.09;100216.03;4977392;28;45948;-75
2023/07/24 13:28:37;;;;;;;;;2.00;2.00;;;;;30.42;36.01;100212.00;4977751;28;45270;-74
2023/07/24 13:31:22;;;;;;;;;0.75;0.75;;;;;30.52;36.39;100211.59;4976716;28;45738;-74
2023/07/24 13:33:48;;;;;;;;;4.25;1.50;;;;;30.80;35.84;100210.28;4976244;28;45785;-74
2023/07/24 13:36:16;;;;;;;;;2.50;1.50;;;;;31.37;35.53;100200.41;4977652;28;45399;-74
2023/07/24 13:38:43;;;;;;;;;2.00;1.75;;;;;31.68;34.10;100196.88;4977527;28;46356;-74
2023/07/24 13:41:08;;;;;;;;;5.00;2.00;;;;;31.65;34.28;100194.53;4976886;28;45540;-75
2023/07/24 13:43:39;;;;;;;;;0.75;0.75;;;;;31.29;34.80;100186.81;4960348;28;45374;-74
2023/07/24 13:46:07;;;;;;;;;2.00;2.00;;;;;31.51;34.67;100182.66;4979360;28;45342;-75
2023/07/24 13:48:32;;;;;;;;;1.75;1.75;;;;;31.69;34.19;100181.97;4979452;28;48085;-74
2023/07/24 13:50:58;;;;;;;;;3.00;1.75;;;;;31.61;34.57;100189.66;4975493;28;45572;-76
2023/07/24 13:53:24;;;;;;;;;1.75;1.75;;;;;31.62;34.86;100188.63;4976090;28;45349;-73
2023/07/24 13:55:52;;;;;;;;;1.75;1.75;;;;;31.64;34.43;100192.03;4957799;28;46913;-74
2023/07/24 13:58:17;;;;;;;;;4.25;1.75;;;;;31.67;34.51;100192.41;4975419;28;45981;-74
2023/07/24 14:00:42;;;;;;;;;1.00;1.00;;;;;31.83;34.44;100189.13;4975750;28;45410;-75
2023/07/24 14:03:09;;;;;;;;;0.50;0.50;;;;;32.12;33.20;100182.13;4986145;28;45267;-75
2023/07/24 14:05:36;;;;;;;;;1.25;1.25;;;;;32.33;32.87;100170.66;4981787;28;45322;-75
2023/07/24 14:08:03;;;;;;;;;1.25;1.25;;;;;32.39;33.47;100184.72;4988193;28;46626;-73
2023/07/24 14:10:29;;;;;;;;;1.25;1.25;;;;;32.33;33.05;100167.03;4980968;28;45484;-74
2023/07/24 14:12:55;;;;;;;;;1.75;1.75;;;;;32.61;32.84;100164.66;4979192;28;45664;-75
2023/07/24 14:15:20;;;;;;;;;2.00;2.00;;;;;32.64;32.84;100174.47;4977051;28;45488;-76
2023/07/24 14:17:46;;;;;;;;;0.25;0.25;;;;;32.67;32.87;100169.28;4975486;28;45421;-75
2023/07/24 14:20:11;;;;;;;;;0.75;0.75;;;;;32.43;33.08;100164.63;4974640;28;45439;-74
2023/07/24 14:22:37;;;;;;;;;0.75;0.75;;;;;32.79;32.63;100158.34;4975244;28;45524;-75
2023/07/24 14:25:05;;;;;;;;;1.25;1.25;;;;;33.56;31.37;100148.47;4957763;28;45378;-74
2023/07/24 14:27:31;;;;;;;;;1.00;1.00;;;;;33.90;31.57;100151.66;4978353;28;45416;-74
2023/07/24 14:29:56;;;;;;;;;0.75;0.75;;;;;33.76;30.19;100131.56;4983512;28;45424;-74
2023/07/24 14:32:22;;;;;;;;;0.00;0.00;;;;;33.54;30.50;100133.94;4983201;28;45491;-75
2023/07/24 14:34:51;;;;;;;;;0.75;0.75;;;;;33.69;30.63;100147.41;4977167;28;45484;-74
2023/07/24 14:37:16;;;;;;;;;1.00;1.00;;;;;33.71;31.19;100150.81;4979667;28;46288;-77
2023/07/24 14:39:44;;;;;;;;;1.00;1.00;;;;;33.85;30.59;100160.72;4974424;28;45465;-76
2023/07/24 14:42:09;;;;;;;;;0.75;0.75;;;;;34.07;30.51;100133.19;4974720;28;45442;-74
2023/07/24 14:44:34;;;;;;;;;1.00;1.00;;;;;34.45;30.52;100136.41;4974539;28;45325;-76
2023/07/24 14:47:00;;;;;;;;;0.75;0.75;;;;;34.69;29.72;100147.59;4973733;28;45220;-75
2023/07/24 14:49:25;;;;;;;;;1.00;1.00;;;;;35.51;29.11;100131.63;4974264;28;45553;-74
2023/07/24 14:51:51;;;;;;;;;1.00;1.00;;;;;35.64;28.69;100134.13;4975114;28;45373;-74
2023/07/24 14:54:16;;;;;;;;;0.75;0.75;;;;;36.06;27.94;100134.66;4974724;28;45534;-73
2023/07/24 14:56:42;;;;;;;;;2.00;0.75;;;;;36.08;28.14;100126.03;4974506;28;46489;-75
2023/07/24 14:59:07;;;;;;;;;0.00;0.00;;;;;36.41;27.25;100133.63;4974727;28;45342;-75
2023/07/24 15:01:32;;;;;;;;;1.00;1.00;;;;;36.87;27.32;100129.59;4975276;28;45554;-77
2023/07/24 15:03:58;;;;;;;;;1.00;0.50;;;;;36.76;27.12;100115.47;4974630;28;46164;-74
2023/07/24 15:06:23;;;;;;;;;1.00;1.00;;;;;36.16;27.27;100136.75;4974915;28;45438;-74
2023/07/24 15:08:56;;;;;;;;;2.25;1.00;;;;;36.22;26.96;100114.31;4973484;28;45460;-75
2023/07/24 15:11:22;;;;;;;;;0.75;0.75;;;;;35.94;27.14;100125.50;4974330;28;45627;-77
2023/07/24 15:13:51;;;;;;;;;0.25;0.25;;;;;34.97;29.10;100132.94;4974271;28;45946;-74
2023/07/24 15:16:16;;;;;;;;;0.00;0.00;;;;;34.75;29.55;100124.38;4974220;28;46379;-75
2023/07/24 15:18:42;;;;;;;;;3.50;1.00;;;;;34.44;29.68;100128.34;4974367;28;45792;-74
2023/07/24 15:21:08;;;;;;;;;0.25;0.25;;;;;34.24;30.29;100125.03;4974757;28;45215;-75
2023/07/24 15:23:34;;;;;;;;;1.00;1.00;;;;;34.40;29.75;100124.31;4974415;28;45375;-75
2023/07/24 15:25:59;;;;;;;;;2.00;0.75;;;;;34.53;29.66;100124.97;4974046;28;46186;-74
2023/07/24 15:28:25;;;;;;;;;0.00;0.00;;;;;34.47;29.03;100113.91;4965797;28;45471;-76
2023/07/24 15:30:51;;;;;;;;;2.00;0.00;;;;;35.12;28.28;100120.19;4973312;28;45586;-76
2023/07/24 15:33:16;;;;;;;;;0.00;0.00;;;;;35.23;27.78;100124.06;4974511;28;45357;-77
2023/07/24 15:35:42;;;;;;;;;0.00;0.00;;;;;35.40;29.04;100149.22;4960613;28;46754;-74
2023/07/24 15:38:07;;;;;;;;;0.00;0.00;;;;;34.97;30.52;100155.22;4978819;28;45824;-73
2023/07/24 15:40:33;;;;;;;;;0.00;0.00;;;;;34.38;31.58;100143.19;4977660;28;45398;-75
2023/07/24 15:42:58;;;;;;;;;1.00;1.00;;;;;34.24;32.00;100148.16;4953781;28;45658;-77
2023/07/24 15:45:24;;;;;;;;;2.00;2.00;;;;;33.59;32.91;100139.66;4977145;28;46099;-76
2023/07/24 15:47:52;;;;;;;;;1.75;0.50;;;;;33.29;33.60;100147.97;4959775;28;45327;-77
2023/07/24 15:50:17;;;;;;;;;0.75;0.75;;;;;33.02;34.22;100152.94;4977873;28;45362;-75